Time;durP1;ratioP1;P1;durP2;ratioP2;P2;SDS_P1;SDS_P2;PMS_P1;PMS_P2;Temp;Humidity;BMP_temperature;BMP_pressure;BME280_temperature;BME280_humidity;BME280_pressure;Samples;Min_cycle;Max_cycle;Signal;HPM_P1;HPM_P2
2022/04/18 00:02:22;;;;;;;3.33;2.07;;;;;;;;;;5097917;28;20904;-78
2022/04/18 00:04:52;;;;;;;6.53;1.93;;;;;;;;;;5096329;28;20423;-78
2022/04/18 00:07:18;;;;;;;6.40;2.50;;;;;;;;;;5097807;28;20473;-78
2022/04/18 00:09:46;;;;;;;4.50;2.20;;;;;;;;;;5097753;28;20902;-78
2022/04/18 00:12:16;;;;;;;6.93;2.40;;;;;;;;;;5097716;28;20416;-78
2022/04/18 00:14:42;;;;;;;13.00;2.73;;;;;;;;;;5097592;28;20416;-78
2022/04/18 00:17:27;;;;;;;4.17;2.23;;;4.80;99.90;;;;;;5097424;28;20408;-78
2022/04/18 00:19:55;;;;;;;7.30;2.67;;;;;;;;;;5115186;28;20473;-78
2022/04/18 00:22:40;;;;;;;2.40;1.77;;;4.80;99.90;;;;;;5106033;28;20817;-78
2022/04/18 00:25:10;;;;;;;3.40;2.37;;;;;;;;;;5077321;28;20389;-80
2022/04/18 00:27:46;;;;;;;4.50;2.23;;;;;;;;;;5089232;28;20473;-80
2022/04/18 00:30:12;;;;;;;4.63;2.20;;;;;;;;;;5096327;28;20491;-81
2022/04/18 00:32:46;;;;;;;2.00;1.60;;;;;;;;;;5096997;28;20948;-80
2022/04/18 00:35:28;;;;;;;4.70;2.70;;;;;;;;;;5096878;28;20410;-80
2022/04/18 00:37:56;;;;;;;2.43;2.23;;;;;;;;;;5096857;28;20799;-80
2022/04/18 00:40:22;;;;;;;4.60;2.00;;;;;;;;;;5090316;28;20466;-80
2022/04/18 00:42:52;;;;;;;10.00;2.83;;;;;;;;;;5096200;28;20469;-80
2022/04/18 00:45:22;;;;;;;3.30;2.22;;;;;;;;;;5096392;28;20776;-80
2022/04/18 00:47:52;;;;;;;7.50;3.20;;;;;;;;;;5096738;28;20184;-80
2022/04/18 00:50:29;;;;;;;7.33;2.30;;;4.60;99.90;;;;;;5096335;28;20439;-81
2022/04/18 00:52:58;;;;;;;2.97;2.67;;;;;;;;;;5096679;28;20412;-80
2022/04/18 00:55:26;;;;;;;4.10;2.97;;;;;;;;;;5097212;28;20474;-78
2022/04/18 00:58:10;;;;;;;5.40;3.40;;;;;;;;;;5096634;28;20420;-78
2022/04/18 01:00:47;;;;;;;5.07;3.30;;;;;;;;;;5088779;28;20507;-78
2022/04/18 01:03:17;;;;;;;6.57;3.30;;;;;;;;;;5091123;28;20824;-78
2022/04/18 01:05:47;;;;;;;10.30;4.80;;;;;;;;;;5096351;28;20170;-78
2022/04/18 01:08:16;;;;;;;10.70;4.70;;;;;;;;;;5095895;28;20419;-78
2022/04/18 01:10:53;;;;;;;7.90;4.23;;;4.50;99.90;;;;;;5085406;28;20179;-78
2022/04/18 01:13:19;;;;;;;7.50;3.83;;;;;;;;;;5096472;28;20499;-78
2022/04/18 01:15:58;;;;;;;9.47;3.87;;;;;;;;;;5095087;28;20412;-78
2022/04/18 01:18:35;;;;;;;5.73;3.57;;;;;;;;;;5082286;28;20907;-78
2022/04/18 01:21:01;;;;;;;11.90;5.05;;;;;;;;;;5096226;28;20408;-78
2022/04/18 01:23:27;;;;;;;5.63;3.63;;;;;;;;;;5096412;28;20228;-78
2022/04/18 01:28:58;;;;;;;19.25;5.53;;;;;;;;;;5087761;28;20492;-78
2022/04/18 01:31:25;;;;;;;10.27;4.30;;;;;;;;;;5096059;28;20181;-79
2022/04/18 01:33:53;;;;;;;7.47;4.78;;;;;;;;;;5094783;28;20174;-79
2022/04/18 01:36:22;;;;;;;9.63;5.47;;;;;;;;;;5082801;28;20727;-78
2022/04/18 01:39:04;;;;;;;13.23;6.00;;;;;;;;;;5101255;28;20216;-78
2022/04/18 01:41:30;;;;;;;8.77;5.10;;;;;;;;;;5095929;28;20198;-79
2022/04/18 01:44:10;;;;;;;11.47;6.00;;;;;;;;;;5095358;28;20422;-78
2022/04/18 01:46:37;;;;;;;18.37;6.33;;;4.20;1.00;;;;;;5094282;28;20416;-78
2022/04/18 01:49:10;;;;;;;20.13;6.27;;;;;;;;;;5098351;28;20424;-78
2022/04/18 01:51:46;;;;;;;13.68;4.63;;;;;;;;;;5095903;28;20503;-78
2022/04/18 01:54:16;;;;;;;11.88;5.10;;;;;;;;;;5087520;28;20166;-79
2022/04/18 01:56:52;;;;;;;9.37;4.13;;;;;;;;;;5076384;28;20167;-79
2022/04/18 01:59:51;;;;;;;8.97;4.30;;;4.10;99.90;;;;;;5095369;28;20451;-78
2022/04/18 02:02:17;;;;;;;16.25;5.57;;;;;;;;;;5080553;28;20408;-78
2022/04/18 02:05:09;;;;;;;38.35;7.55;;;4.00;1.00;;;;;;5095091;28;20613;-78
2022/04/18 02:07:36;;;;;;;7.70;3.80;;;;;;;;;;5084209;28;20854;-78
2022/04/18 02:10:04;;;;;;;21.05;5.55;;;;;;;;;;5093439;28;20407;-80
2022/04/18 02:12:32;;;;;;;7.40;3.90;;;4.00;1.00;;;;;;5095021;28;20178;-81
2022/04/18 02:14:58;;;;;;;6.10;4.23;;;;;;;;;;5094879;28;20984;-81
2022/04/18 02:17:24;;;;;;;7.63;3.93;;;;;;;;;;5093655;28;20469;-81
2022/04/18 02:19:52;;;;;;;7.47;4.18;;;;;;;;;;5093538;28;20471;-81
2022/04/18 02:22:23;;;;;;;8.13;3.95;;;;;;;;;;5094743;28;20528;-81
2022/04/18 02:24:58;;;;;;;8.27;3.90;;;;;;;;;;5094725;28;20197;-80
2022/04/18 02:27:28;;;;;;;4.93;3.40;;;;;;;;;;5080277;28;20393;-81
2022/04/18 02:30:05;;;;;;;5.93;3.92;;;;;;;;;;5084529;28;20428;-81
2022/04/18 02:35:24;;;;;;;7.47;4.47;;;3.90;1.00;;;;;;5094703;28;20213;-81
2022/04/18 02:37:50;;;;;;;5.93;3.90;;;;;;;;;;5093249;28;20663;-81
2022/04/18 02:40:16;;;;;;;5.47;3.92;;;;;;;;;;5096227;28;20478;-79
2022/04/18 02:42:58;;;;;;;8.30;4.53;;;;;;;;;;5094246;28;20644;-78
2022/04/18 02:45:27;;;;;;;6.80;3.50;;;;;;;;;;5094829;28;20381;-78
2022/04/18 02:47:58;;;;;;;7.28;4.03;;;;;;;;;;5094353;28;20585;-78
2022/04/18 02:50:25;;;;;;;7.55;3.60;;;;;;;;;;5075357;28;20620;-78
2022/04/18 02:52:58;;;;;;;3.97;3.53;;;;;;;;;;5083078;28;20174;-78
2022/04/18 02:55:28;;;;;;;5.90;3.40;;;;;;;;;;5094592;28;20213;-79
2022/04/18 02:58:04;;;;;;;3.50;2.90;;;;;;;;;;5094217;28;20420;-79
2022/04/18 03:00:40;;;;;;;4.83;3.10;;;;;;;;;;5093989;28;20221;-79
2022/04/18 03:03:11;;;;;;;4.78;3.22;;;;;;;;;;5094503;28;20481;-79
2022/04/18 03:05:40;;;;;;;6.18;3.47;;;;;;;;;;5096269;28;20174;-79
2022/04/18 03:08:16;;;;;;;3.70;2.90;;;;;;;;;;5101523;28;20641;-79
2022/04/18 03:11:05;;;;;;;4.13;3.10;;;;;;;;;;5095736;28;20181;-78
2022/04/18 03:13:36;;;;;;;6.82;2.83;;;;;;;;;;5093659;28;20261;-79
2022/04/18 03:16:03;;;;;;;11.30;3.60;;;;;;;;;;5094444;28;20146;-79
2022/04/18 03:18:46;;;;;;;5.75;3.13;;;;;;;;;;5095631;28;20295;-79
2022/04/18 03:21:13;;;;;;;8.38;3.28;;;;;;;;;;5084627;28;20185;-79
2022/04/18 03:23:39;;;;;;;7.65;3.47;;;;;;;;;;5093729;28;20257;-79
2022/04/18 03:26:11;;;;;;;8.55;3.60;;;;;;;;;;5094107;28;20150;-80
2022/04/18 03:28:46;;;;;;;4.47;2.85;;;;;;;;;;5090957;28;20672;-81
2022/04/18 03:31:16;;;;;;;6.57;2.70;;;;;;;;;;5085631;28;20640;-81
2022/04/18 03:33:52;;;;;;;3.30;3.00;;;;;;;;;;5093659;28;20671;-81
2022/04/18 03:39:57;;;;;;;3.28;2.42;;;3.30;1.00;;;;;;5098649;28;20553;-81
2022/04/18 03:42:31;;;;;;;4.97;2.58;;;;;;;;;;5084013;28;20526;-81
2022/04/18 03:45:01;;;;;;;6.78;2.95;;;;;;;;;;5093314;28;20223;-81
2022/04/18 03:47:34;;;;;;;4.68;2.80;;;;;;;;;;5093612;28;20223;-81
2022/04/18 03:50:00;;;;;;;2.55;2.35;;;;;;;;;;5093351;28;20193;-81
2022/04/18 03:52:45;;;;;;;10.68;3.65;;;3.20;1.00;;;;;;5093530;28;20633;-81
2022/04/18 03:55:14;;;;;;;2.90;2.67;;;;;;;;;;5082152;28;20188;-81
2022/04/18 03:57:40;;;;;;;7.88;3.30;;;;;;;;;;5093627;28;20565;-81
2022/04/18 04:00:11;;;;;;;3.15;2.85;;;;;;;;;;5100926;28;20208;-81
2022/04/18 04:03:15;;;;;;;7.05;3.20;;;3.20;1.00;;;;;;5093501;28;20162;-81
2022/04/18 04:05:46;;;;;;;5.30;2.97;;;;;;;;;;5090526;28;20232;-81
2022/04/18 04:11:57;;;;;;;3.67;2.78;;;3.10;1.00;;;;;;5073272;28;20181;-81
2022/04/18 04:14:23;;;;;;;7.75;2.60;;;;;;;;;;5073114;28;20163;-81
2022/04/18 04:16:52;;;;;;;9.65;3.47;;;;;;;;;;5087335;28;20182;-81
2022/04/18 04:19:28;;;;;;;4.60;2.53;;;;;;;;;;5080782;28;20546;-81
2022/04/18 04:22:04;;;;;;;6.00;3.20;;;;;;;;;;5093248;28;20154;-81
2022/04/18 04:24:30;;;;;;;3.65;2.35;;;;;;;;;;5093399;28;20189;-81
2022/04/18 04:26:58;;;;;;;5.32;3.08;;;;;;;;;;5093620;28;20178;-81
2022/04/18 04:29:28;;;;;;;9.40;3.05;;;;;;;;;;5092965;28;20189;-81
2022/04/18 04:32:10;;;;;;;3.28;2.50;;;;;;;;;;5093184;28;20649;-81
2022/04/18 04:34:46;;;;;;;4.03;2.70;;;;;;;;;;5093263;28;20565;-81
2022/04/18 04:37:12;;;;;;;4.00;3.00;;;;;;;;;;5080645;28;20234;-81
2022/04/18 04:39:40;;;;;;;29.30;5.70;;;;;;;;;;5094173;28;20213;-81
2022/04/18 04:42:06;;;;;;;3.65;2.45;;;;;;;;;;5093501;28;20230;-79
2022/04/18 04:44:51;;;;;;;7.60;3.45;;;3.10;1.00;;;;;;5091508;28;20183;-79
2022/04/18 04:47:22;;;;;;;8.48;3.28;;;;;;;;;;5085983;28;20238;-79
2022/04/18 04:49:52;;;;;;;12.73;3.72;;;;;;;;;;5090738;28;20179;-79
2022/04/18 04:52:20;;;;;;;3.35;2.70;;;;;;;;;;5086545;28;20201;-79
2022/04/18 04:54:46;;;;;;;7.97;2.95;;;;;;;;;;5096584;28;20213;-79
2022/04/18 04:57:16;;;;;;;4.68;2.80;;;;;;;;;;5096978;28;20158;-79
2022/04/18 05:00:04;;;;;;;7.05;3.00;;;3.20;1.00;;;;;;5096405;28;20209;-79
2022/04/18 05:02:30;;;;;;;12.20;2.58;;;;;;;;;;5094033;28;20178;-79
2022/04/18 05:05:04;;;;;;;10.15;3.53;;;;;;;;;;5085126;28;20194;-79
2022/04/18 05:07:34;;;;;;;3.60;2.78;;;;;;;;;;5110199;28;20256;-79
2022/04/18 05:10:10;;;;;;;9.38;3.80;;;;;;;;;;5094987;28;20542;-79
2022/04/18 05:12:46;;;;;;;3.10;2.80;;;;;;;;;;5096612;28;20185;-81
2022/04/18 05:15:22;;;;;;;10.00;3.25;;;;;;;;;;5096232;28;20571;-81
2022/04/18 05:17:52;;;;;;;4.35;2.50;;;;;;;;;;5096316;28;20673;-81
2022/04/18 05:20:22;;;;;;;2.72;2.53;;;;;;;;;;5097800;28;20205;-81
2022/04/18 05:22:58;;;;;;;4.57;2.90;;;;;;;;;;5096155;28;20185;-80
2022/04/18 05:25:30;;;;;;;3.70;2.50;;;;;;;;;;5090060;28;20182;-80
2022/04/18 05:27:58;;;;;;;2.97;2.70;;;;;;;;;;5076136;28;20386;-80
2022/04/18 05:30:58;;;;;;;3.80;3.17;;;3.70;1.00;;;;;;5081436;28;20189;-80
2022/04/18 05:33:28;;;;;;;2.50;2.30;;;;;;;;;;5095911;28;20414;-81
2022/04/18 05:35:58;;;;;;;7.35;3.45;;;;;;;;;;5095726;28;20836;-80
2022/04/18 05:38:25;;;;;;;11.68;2.90;;;;;;;;;;5095724;28;20269;-81
2022/04/18 05:40:51;;;;;;;4.10;2.70;;;;;;;;;;5095551;28;20624;-81
2022/04/18 05:43:29;;;;;;;3.17;2.40;;;;;;;;;;5095987;28;20451;-81
2022/04/18 05:45:58;;;;;;;3.33;2.90;;;;;;;;;;5095562;28;20412;-86
2022/04/18 05:48:28;;;;;;;3.00;2.70;;;;;;;;;;5095911;28;20542;-79
2022/04/18 05:50:59;;;;;;;9.47;3.30;;;;;;;;;;5095341;28;20400;-78
2022/04/18 05:53:28;;;;;;;3.07;2.40;;;;;;;;;;5095656;28;20737;-78
2022/04/18 05:55:55;;;;;;;7.60;3.50;;;;;;;;;;5095553;28;20393;-78
2022/04/18 05:58:21;;;;;;;3.97;2.40;;;;;;;;;;5095776;28;20436;-76
2022/04/18 06:00:47;;;;;;;7.50;2.90;;;;;;;;;;5084759;28;20510;-76
2022/04/18 06:03:13;;;;;;;7.30;3.17;;;;;;;;;;5095637;28;20389;-76
2022/04/18 06:05:40;;;;;;;11.40;3.60;;;;;;;;;;5093071;28;20440;-76
2022/04/18 06:08:10;;;;;;;4.20;2.60;;;;;;;;;;5095228;28;20406;-76
2022/04/18 06:10:40;;;;;;;4.43;2.87;;;;;;;;;;5095194;28;20413;-76
2022/04/18 06:13:09;;;;;;;8.27;2.67;;;;;;;;;;5095857;28;20397;-78
2022/04/18 06:15:36;;;;;;;7.93;2.50;;;;;;;;;;5090801;28;20439;-79
2022/04/18 06:18:02;;;;;;;4.20;2.60;;;;;;;;;;5074866;28;20400;-78
2022/04/18 06:20:34;;;;;;;4.23;2.00;;;;;;;;;;5079238;28;20559;-78
2022/04/18 06:23:04;;;;;;;3.13;2.23;;;;;;;;;;5094163;28;20432;-78
2022/04/18 06:25:30;;;;;;;5.50;2.53;;;;;;;;;;5095066;28;20462;-78
2022/04/18 06:27:56;;;;;;;5.93;2.37;;;;;;;;;;5095531;28;20389;-75
2022/04/18 06:30:28;;;;;;;7.50;3.00;;;;;;;;;;5092930;28;20989;-75
2022/04/18 06:32:54;;;;;;;6.17;2.40;;;;;;;;;;5074548;28;20408;-69
2022/04/18 06:35:21;;;;;;;8.13;2.63;;;;;;;;;;5094344;28;20416;-69
2022/04/18 06:37:47;;;;;;;10.87;3.03;;;;;;;;;;5094548;28;20495;-70
2022/04/18 06:40:13;;;;;;;24.73;5.30;;;;;;;;;;5079599;28;20471;-70
2022/04/18 06:42:39;;;;;;;7.50;2.40;;;;;;;;;;5082950;28;21002;-69
2022/04/18 06:45:05;;;;;;;7.53;2.83;;;;;;;;;;5072962;28;20912;-76
2022/04/18 06:47:31;;;;;;;9.60;3.20;;;;;;;;;;5074864;28;20425;-76
2022/04/18 06:49:57;;;;;;;9.20;3.00;;;;;;;;;;5093479;28;20432;-76
2022/04/18 06:52:23;;;;;;;6.90;2.57;;;;;;;;;;5094317;28;20436;-76
2022/04/18 06:54:50;;;;;;;9.70;2.83;;;;;;;;;;5094243;28;20417;-76
2022/04/18 06:57:22;;;;;;;4.50;2.20;;;;;;;;;;5085678;28;20816;-76
2022/04/18 06:59:49;;;;;;;7.30;2.30;;;;;;;;;;5094462;28;20925;-79
2022/04/18 07:02:15;;;;;;;2.23;1.90;;;;;;;;;;5094372;28;20447;-79
2022/04/18 07:04:59;;;;;;;14.40;2.90;;;;;;;;;;5084197;28;20429;-79
2022/04/18 07:07:28;;;;;;;6.40;2.50;;;;;;;;;;5091951;28;20404;-77
2022/04/18 07:09:58;;;;;;;4.87;2.30;;;;;;;;;;5094100;28;20401;-77
2022/04/18 07:12:28;;;;;;;3.70;1.83;;;;;;;;;;5092560;28;20902;-77
2022/04/18 07:14:58;;;;;;;14.00;2.63;;;;;;;;;;5092074;28;20488;-71
2022/04/18 07:17:24;;;;;;;13.37;3.53;;;;;;;;;;5087762;28;20410;-70
2022/04/18 07:19:50;;;;;;;8.83;2.83;;;;;;;;;;5086244;28;20517;-70
2022/04/18 07:22:16;;;;;;;9.67;3.03;;;;;;;;;;5080206;28;20785;-70
2022/04/18 07:24:42;;;;;;;10.03;3.30;;;;;;;;;;5089779;28;20971;-70
2022/04/18 07:27:08;;;;;;;6.10;2.43;;;;;;;;;;5092646;28;20416;-70
2022/04/18 07:29:35;;;;;;;7.43;2.77;;;;;;;;;;5094096;28;20900;-70
2022/04/18 07:32:01;;;;;;;6.83;2.70;;;;;;;;;;5087574;28;20417;-70
2022/04/18 07:34:29;;;;;;;7.30;2.90;;;;;;;;;;5083550;28;20399;-70
2022/04/18 07:36:55;;;;;;;9.87;3.00;;;;;;;;;;5092167;28;20391;-69
2022/04/18 07:39:21;;;;;;;6.50;2.47;;;;;;;;;;5093750;28;20784;-69
2022/04/18 07:41:47;;;;;;;8.77;2.73;;;;;;;;;;5093166;28;20410;-70
2022/04/18 07:44:13;;;;;;;13.90;3.33;;;;;;;;;;5086775;28;20858;-69
2022/04/18 07:46:39;;;;;;;8.37;3.07;;;;;;;;;;5087758;28;20923;-69
2022/04/18 07:49:05;;;;;;;17.07;4.00;;;;;;;;;;5085558;28;20423;-69
2022/04/18 07:51:32;;;;;;;7.33;2.90;;;;;;;;;;5089067;28;20395;-69
2022/04/18 07:54:00;;;;;;;34.20;5.67;;;;;;;;;;5091240;28;20943;-70
2022/04/18 07:56:41;;;;;;;15.70;4.10;;;;;;;;;;5092478;28;20456;-78
2022/04/18 07:59:07;;;;;;;12.00;3.13;;;;;;;;;;5086946;28;20559;-74
2022/04/18 08:01:33;;;;;;;9.47;2.87;;;;;;;;;;5074706;28;20421;-74
2022/04/18 08:04:00;;;;;;;11.80;3.23;;;;;;;;;;5082333;28;20403;-74
2022/04/18 08:06:27;;;;;;;8.47;3.13;;;;;;;;;;5092821;28;20403;-74
2022/04/18 08:08:53;;;;;;;18.33;4.47;;;;;;;;;;5091980;28;20496;-74
2022/04/18 08:11:20;;;;;;;6.50;2.63;;;;;;;;;;5074641;28;20394;-74
2022/04/18 08:13:47;;;;;;;7.03;2.53;;;12.70;99.90;;;;;;5090113;28;20395;-71
2022/04/18 08:16:14;;;;;;;14.53;3.47;;;;;;;;;;5091545;28;20519;-71
2022/04/18 08:18:46;;;;;;;3.57;2.20;;;;;;;;;;5092871;28;20431;-85
2022/04/18 08:24:15;;;;;;;2.80;2.10;;;;;;;;;;5082386;28;20366;-85
2022/04/18 08:27:04;;;;;;;3.93;2.33;;;13.10;99.90;;;;;;5097119;28;20413;-79
2022/04/18 08:29:34;;;;;;;32.07;5.47;;;;;;;;;;5085634;28;20416;-78
2022/04/18 08:32:04;;;;;;;4.50;2.13;;;;;;;;;;5095428;28;20886;-79
2022/04/18 08:34:31;;;;;;;4.53;2.20;;;;;;;;;;5097008;28;20426;-79
2022/04/18 08:36:57;;;;;;;23.30;3.30;;;;;;;;;;5097193;28;20907;-76
2022/04/18 08:39:23;;;;;;;5.13;2.30;;;;;;;;;;5093277;28;20475;-76
2022/04/18 08:41:57;;;;;;;7.83;2.40;;;13.70;99.90;;;;;;5083518;28;20432;-76
2022/04/18 08:44:26;;;;;;;3.70;2.13;;;13.80;99.90;;;;;;5084670;28;20456;-75
2022/04/18 08:46:53;;;;;;;5.83;2.73;;;;;;;;;;5081535;28;20956;-76
2022/04/18 08:55:04;;;;;;;6.10;2.40;;;;;;;;;;5096748;28;20451;-76
2022/04/18 08:57:34;;;;;;;6.20;2.73;;;;;;;;;;5095170;28;20484;-76
2022/04/18 09:00:04;;;;;;;15.10;3.00;;;;;;;;;;5095144;28;20962;-75
2022/04/18 09:02:30;;;;;;;4.27;2.60;;;;;;;;;;5095778;28;20534;-75
2022/04/18 09:04:57;;;;;;;9.00;3.07;;;;;;;;;;5094567;28;20478;-75
2022/04/18 09:07:23;;;;;;;4.63;2.43;;;;;;;;;;5096173;28;20420;-79
2022/04/18 09:09:54;;;;;;;4.60;2.30;;;14.60;99.90;;;;;;5096603;28;20425;-79
2022/04/18 09:12:51;;;;;;;6.87;2.97;;;;;;;;;;5096374;28;20427;-79
2022/04/18 09:15:42;;;;;;;8.47;2.47;;;14.70;99.90;;;;;;5085620;28;20408;-80
2022/04/18 09:18:13;;;;;;;2.30;2.10;;;14.70;99.90;;;;;;5096204;28;20393;-80
2022/04/18 09:20:52;;;;;;;2.87;2.50;;;;;;;;;;5094953;28;20508;-81
2022/04/18 09:23:49;;;;;;;6.77;2.67;;;15.00;99.90;;;;;;5096113;28;20409;-81
2022/04/18 09:26:51;;;;;;;2.50;1.90;;;;;;;;;;5095955;28;20408;-82
2022/04/18 09:29:21;;;;;;;2.17;1.90;;;;;;;;;;5082574;28;20443;-79
2022/04/18 09:31:47;;;;;;;7.70;2.53;;;;;;;;;;5084175;28;20410;-74
2022/04/18 09:34:21;;;;;;;7.10;2.70;;;15.20;99.90;;;;;;5093395;28;20508;-75
2022/04/18 09:36:47;;;;;;;13.20;3.00;;;;;;;;;;5095771;28;20909;-74
2022/04/18 09:39:23;;;;;;;5.27;2.40;;;15.40;99.90;;;;;;5095444;28;20472;-74
2022/04/18 09:41:49;;;;;;;23.93;4.63;;;;;;;;;;5090592;28;20456;-74
2022/04/18 09:44:24;;;;;;;17.13;3.80;;;;;;;;;;5095145;28;20442;-74
2022/04/18 09:46:50;;;;;;;25.50;4.40;;;;;;;;;;5095113;28;20429;-74
2022/04/18 09:49:16;;;;;;;5.80;2.23;;;;;;;;;;5095358;28;20515;-74
2022/04/18 09:51:43;;;;;;;11.27;3.20;;;;;;;;;;5090801;28;20440;-73
2022/04/18 09:54:10;;;;;;;6.90;2.50;;;;;;;;;;5095402;28;20760;-74
2022/04/18 09:56:37;;;;;;;12.00;2.97;;;;;;;;;;5092275;28;20424;-74
2022/04/18 09:59:04;;;;;;;15.43;3.40;;;;;;;;;;5105327;28;20969;-74
2022/04/18 10:01:35;;;;;;;22.97;4.47;;;;;;;;;;5095409;28;20411;-74
2022/04/18 10:04:05;;;;;;;4.73;2.30;;;16.00;99.90;;;;;;5095130;28;20447;-74
2022/04/18 10:06:31;;;;;;;7.63;2.60;;;;;;;;;;5087250;28;21104;-74
2022/04/18 10:08:58;;;;;;;8.13;2.53;;;;;;;;;;5094933;28;20413;-74
2022/04/18 10:11:29;;;;;;;1.70;1.53;;;;;;;;;;5080363;28;20468;-84
2022/04/18 10:13:55;;;;;;;7.87;2.60;;;;;;;;;;5094887;28;20891;-72
2022/04/18 10:16:23;;;;;;;6.87;2.73;;;16.50;99.90;;;;;;5095311;28;20428;-72
2022/04/18 10:18:51;;;;;;;5.67;2.37;;;;;;;;;;5094882;28;20387;-72
2022/04/18 10:21:23;;;;;;;10.57;3.17;;;;;;;;;;5094277;28;20420;-72
2022/04/18 10:24:21;;;;;;;6.27;2.50;;;17.00;99.90;;;;;;5094230;28;20448;-72
2022/04/18 10:26:51;;;;;;;8.47;3.17;;;;;;;;;;5094820;28;20925;-72
2022/04/18 10:29:18;;;;;;;15.07;3.70;;;;;;;;;;5094414;28;20519;-72
2022/04/18 10:31:45;;;;;;;5.33;2.47;;;;;;;;;;5091175;28;20956;-72
2022/04/18 10:34:14;;;;;;;10.53;3.00;;;17.20;99.90;;;;;;5092963;28;20459;-72
2022/04/18 10:36:47;;;;;;;13.57;3.80;;;17.20;99.90;;;;;;5085998;28;20435;-72
2022/04/18 10:39:14;;;;;;;10.23;3.07;;;;;;;;;;5094407;28;20958;-72
2022/04/18 10:41:41;;;;;;;14.77;3.70;;;;;;;;;;5094017;28;20418;-72
2022/04/18 10:44:10;;;;;;;7.17;2.50;;;;;;;;;;5087192;28;20437;-72
2022/04/18 10:46:37;;;;;;;8.83;2.87;;;17.50;99.90;;;;;;5094706;28;20528;-72
2022/04/18 10:49:13;;;;;;;27.90;5.20;;;;;;;;;;5093974;28;20777;-72
2022/04/18 10:51:41;;;;;;;4.67;2.27;;;17.50;99.90;;;;;;5094699;28;20466;-86
2022/04/18 10:54:25;;;;;;;4.97;2.57;;;17.50;99.90;;;;;;5094221;28;20420;-84
2022/04/18 10:57:13;;;;;;;2.33;2.13;;;17.60;99.90;;;;;;5094089;28;20749;-84
2022/04/18 10:59:42;;;;;;;17.77;3.63;;;17.60;99.90;;;;;;5092815;28;20461;-84
2022/04/18 11:02:42;;;;;;;10.03;2.57;;;17.70;99.90;;;;;;5094522;28;20453;-80
2022/04/18 11:05:16;;;;;;;3.90;2.10;;;;;;;;;;5030878;28;20775;-80
2022/04/18 11:07:46;;;;;;;9.80;2.67;;;;;;;;;;5042473;28;20994;-80
2022/04/18 11:10:19;;;;;;;2.03;1.60;;;;;;;;;;5040721;28;20428;-80
2022/04/18 11:12:46;;;;;;;8.20;2.50;;;;;;;;;;5027766;28;20391;-79
2022/04/18 11:15:13;;;;;;;4.33;1.83;;;;;;;;;;5015628;28;20922;-79
2022/04/18 11:17:52;;;;;;;4.93;1.90;;;;;;;;;;5032475;28;20424;-79
2022/04/18 11:20:40;;;;;;;17.50;3.03;;;17.80;99.90;;;;;;5031669;28;20518;-79
2022/04/18 11:23:26;;;;;;;5.93;1.80;;;17.80;99.90;;;;;;5003650;28;20428;-79
2022/04/18 11:26:33;;;;;;;2.63;2.03;;;17.80;99.90;;;;;;5031903;28;20422;-79
2022/04/18 11:29:05;;;;;;;11.00;3.13;;;;;;;;;;5031838;28;20424;-78
2022/04/18 11:31:58;;;;;;;3.83;1.70;;;18.00;99.90;;;;;;5031508;28;20806;-77
2022/04/18 11:34:30;;;;;;;5.30;2.23;;;18.20;99.90;;;;;;5031924;28;20826;-78
2022/04/18 11:37:13;;;;;;;2.70;1.80;;;;;;;;;;5031973;28;20872;-78
2022/04/18 11:39:55;;;;;;;6.37;2.53;;;18.40;99.90;;;;;;5033899;28;20472;-78
2022/04/18 11:42:25;;;;;;;3.83;1.80;;;18.30;99.90;;;;;;5093131;28;20541;-78
2022/04/18 11:44:54;;;;;;;8.93;2.27;;;;;;;;;;5093062;28;20463;-78
2022/04/18 11:47:21;;;;;;;3.83;1.67;;;;;;;;;;5080845;28;20413;-77
2022/04/18 11:49:49;;;;;;;6.03;2.27;;;;;;;;;;5093553;28;20411;-77
2022/04/18 11:52:26;;;;;;;6.20;2.37;;;;;;;;;;5060844;28;20438;-77
2022/04/18 11:54:59;;;;;;;7.23;2.33;;;;;;;;;;5086637;28;20431;-77
2022/04/18 11:57:26;;;;;;;5.60;2.17;;;;;;;;;;5077779;28;20423;-77
2022/04/18 11:59:53;;;;;;;17.47;3.20;;;;;;;;;;5071489;28;20464;-77
2022/04/18 12:08:08;;;;;;;29.37;4.53;;;18.80;99.90;;;;;;5033662;28;20414;-75
2022/04/18 12:10:36;;;;;;;10.07;2.77;;;18.80;99.90;;;;;;5033077;28;20972;-75
2022/04/18 12:13:10;;;;;;;4.13;1.83;;;18.80;99.90;;;;;;5035817;28;20472;-75
2022/04/18 12:15:37;;;;;;;14.00;2.83;;;18.70;99.90;;;;;;5035027;28;20932;-75
2022/04/18 12:18:14;;;;;;;9.30;2.70;;;;;;;;;;5025499;28;20449;-73
2022/04/18 12:20:51;;;;;;;12.37;2.83;;;18.90;99.90;;;;;;5045186;28;20472;-73
2022/04/18 12:23:21;;;;;;;6.67;2.60;;;18.90;99.90;;;;;;5022467;28;20413;-73
2022/04/18 12:25:49;;;;;;;12.30;3.03;;;;;;;;;;5034190;28;20416;-73
2022/04/18 12:28:16;;;;;;;11.10;2.83;;;;;;;;;;5027272;28;20855;-73
2022/04/18 12:30:42;;;;;;;12.33;2.80;;;;;;;;;;5047483;28;20421;-82
2022/04/18 12:33:11;;;;;;;7.00;2.20;;;;;;;;;;5031059;28;20438;-77
2022/04/18 12:35:46;;;;;;;11.17;3.00;;;19.00;99.90;;;;;;5044095;28;20812;-77
2022/04/18 12:38:13;;;;;;;15.37;3.33;;;19.00;99.90;;;;;;5039283;28;20532;-77
2022/04/18 12:40:40;;;;;;;4.70;1.83;;;;;;;;;;5045080;28;20467;-77
2022/04/18 12:43:13;;;;;;;5.97;2.27;;;19.20;99.90;;;;;;5040426;28;20452;-77
2022/04/18 12:45:42;;;;;;;10.70;2.63;;;;;;;;;;5087722;28;20451;-74
2022/04/18 12:48:08;;;;;;;11.20;2.93;;;;;;;;;;5088653;28;20462;-75
2022/04/18 12:50:35;;;;;;;9.47;2.40;;;19.30;99.90;;;;;;5077651;28;20913;-76
2022/04/18 12:53:01;;;;;;;16.60;3.13;;;;;;;;;;5075866;28;20436;-75
2022/04/18 12:55:30;;;;;;;19.10;4.13;;;19.40;99.90;;;;;;5094884;28;20423;-75
2022/04/18 12:57:56;;;;;;;8.43;3.03;;;;;;;;;;5081769;28;20496;-75
2022/04/18 13:00:22;;;;;;;15.43;3.30;;;;;;;;;;5089789;28;20464;-75
2022/04/18 13:03:08;;;;;;;7.60;2.83;;;19.70;99.90;;;;;;5076392;28;20442;-76
2022/04/18 13:05:40;;;;;;;9.30;2.50;;;19.60;99.90;;;;;;5074637;28;20411;-75
2022/04/18 13:08:07;;;;;;;8.03;3.50;;;;;;;;;;5081152;28;20423;-75
2022/04/18 13:10:47;;;;;;;3.93;2.10;;;;;;;;;;5085837;28;20420;-81
2022/04/18 13:13:13;;;;;;;8.90;2.20;;;;;;;;;;5084070;28;20415;-80
2022/04/18 13:16:18;;;;;;;7.93;3.37;;;19.80;99.90;;;;;;5084323;28;20448;-81
2022/04/18 13:18:44;;;;;;;21.27;8.87;;;;;;;;;;5064921;28;20437;-82
2022/04/18 13:21:10;;;;;;;3.50;1.87;;;;;;;;;;5075843;28;20452;-82
2022/04/18 13:23:52;;;;;;;3.83;1.87;;;;;;;;;;5075740;28;20413;-82
2022/04/18 13:26:36;;;;;;;2.53;1.50;;;20.20;99.90;;;;;;5068439;28;20415;-82
2022/04/18 13:29:03;;;;;;;13.93;2.13;;;20.20;99.90;;;;;;5080854;28;20427;-82
2022/04/18 13:31:46;;;;;;;1.57;1.47;;;;;;;;;;5087271;28;20406;-82
2022/04/18 13:34:13;;;;;;;3.90;1.50;;;;;;;;;;5080626;28;20409;-82
2022/04/18 13:36:41;;;;;;;2.07;1.53;;;;;;;;;;5084531;28;20404;-82
2022/04/18 13:39:17;;;;;;;4.90;1.40;;;;;;;;;;5093922;28;20895;-83
2022/04/18 13:41:46;;;;;;;4.83;1.77;;;;;;;;;;5082927;28;20455;-82
2022/04/18 13:44:22;;;;;;;2.97;1.77;;;;;;;;;;5088659;28;20422;-82
2022/04/18 13:46:58;;;;;;;5.07;2.03;;;;;;;;;;5088040;28;21048;-82
2022/04/18 13:49:25;;;;;;;2.70;1.50;;;;;;;;;;5084452;28;20413;-82
2022/04/18 13:51:51;;;;;;;17.63;3.30;;;;;;;;;;5079529;28;20588;-81
2022/04/18 13:55:04;;;;;;;2.90;1.73;;;20.80;99.90;;;;;;5092934;28;20424;-82
2022/04/18 13:57:34;;;;;;;3.67;1.80;;;;;;;;;;5053855;28;20496;-82
2022/04/18 14:00:06;;;;;;;2.50;1.33;;;20.80;99.90;;;;;;5086555;28;20998;-83
2022/04/18 14:02:35;;;;;;;4.53;1.80;;;;;;;;;;5084324;28;20497;-80
2022/04/18 14:05:16;;;;;;;4.53;1.60;;;;;;;;;;5089038;28;20839;-80
2022/04/18 14:07:59;;;;;;;1.63;1.30;;;20.50;99.90;;;;;;5088122;28;20415;-79
2022/04/18 14:13:53;;;;;;;3.53;1.63;;;;;;;;;;5067797;28;20433;-81
2022/04/18 14:21:50;;;;;;;9.33;2.30;;;;;;;;;;5072828;28;20418;-74
2022/04/18 14:24:16;;;;;;;72.80;40.87;;;;;;;;;;5090555;28;20498;-75
2022/04/18 14:26:46;;;;;;;6.23;1.80;;;;;;;;;;5094847;28;20901;-74
2022/04/18 14:29:13;;;;;;;8.03;2.20;;;;;;;;;;5094829;28;20453;-74
2022/04/18 14:31:39;;;;;;;10.43;2.20;;;;;;;;;;5087683;28;20418;-74
2022/04/18 14:34:11;;;;;;;15.60;2.37;;;;;;;;;;5088722;28;20450;-79
2022/04/18 14:36:41;;;;;;;7.30;1.70;;;;;;;;;;5083803;28;20410;-79
2022/04/18 14:39:24;;;;;;;5.53;1.60;;;;;;;;;;5076885;28;20514;-79
2022/04/18 14:41:52;;;;;;;1.23;1.13;;;;;;;;;;5074501;28;20419;-78
2022/04/18 14:44:46;;;;;;;2.00;1.43;;;21.60;99.90;;;;;;5068142;28;20453;-78
2022/04/18 14:47:16;;;;;;;1.30;1.20;;;;;;;;;;5081070;28;20422;-79
2022/04/18 14:49:42;;;;;;;14.77;2.57;;;;;;;;;;5090483;28;20945;-73
2022/04/18 14:52:10;;;;;;;636.23;157.63;;;;;;;;;;5075298;28;20426;-73
2022/04/18 14:54:36;;;;;;;10.97;3.20;;;;;;;;;;5072906;28;20427;-74
2022/04/18 14:57:05;;;;;;;20.87;4.67;;;;;;;;;;5076169;28;20911;-74
2022/04/18 14:59:32;;;;;;;40.57;5.50;;;25.40;99.90;;;;;;5067494;28;20522;-72
2022/04/18 15:01:58;;;;;;;34.80;22.50;;;;;;;;;;5078782;28;20426;-72
2022/04/18 15:04:25;;;;;;;481.50;153.03;;;;;;;;;;5082043;28;20433;-73
2022/04/18 15:07:05;;;;;;;104.33;62.33;;;;;;;;;;5068187;28;20830;-85
2022/04/18 15:09:31;;;;;;;316.53;134.77;;;;;;;;;;5087347;28;20454;-82
2022/04/18 15:11:57;;;;;;;1.40;1.30;;;;;;;;;;5082810;28;20407;-85
2022/04/18 15:14:46;;;;;;;79.83;57.97;;;30.60;99.90;;;;;;5078488;28;20759;-79
2022/04/18 15:17:28;;;;;;;298.83;135.40;;;;;;;;;;5084724;28;20436;-79
2022/04/18 15:20:05;;;;;;;393.53;173.80;;;;;;;;;;5068481;28;20533;-80